Terminal Aerodrome Forecast
Issued by NWS

Home | Current Version | Previous Version | Text Only | Print | Product List | Glossary On
Versions: 1 2 3 4 5 6 7 8 9 10 11 12 13 14 15 16 17 18 19 20 21 22 23 24 25 26 27 28 29 30 31
000
FTUS43 KFGF 172335 AAB
TAFTVF
TAF AMD
KTVF 172335Z 1800/1824 18008KT 2SM BR BKN002
      TEMPO 1800/1804 1/2SM FG
     FM180600 19013KT 3SM BR BKN003
     FM180800 20013KT 4SM BR BKN035
     FM180900 20012KT 5SM BR BKN060
     FM181800 22010KT 5SM -SN OVC015
     FM182000 23010KT 2SM -SN OVC008=

USA.gov is the U.S. government's official web portal to all federal, state and local government web resources and services.